• Join FlightAware (Why Join?)
  • Login
  • US Flag GB Flag 
14:07 EDT


 

Airport Tracker/Info


-or-


 

Live Flight TrackerFlight Track Log ✈ N403QS ✈ 08-Apr-2013 ✈ KRIL - KFOK

Flight Track Log - Related Links

Times and Time Zones

All times are in EDT time to prevent confusion due to time zone crossing. See the N403QS flight status page for this flight to view local times or setup timezone preferences in your user account.

Time Position Orientation Groundspeed Altitude Reporting Facility
EDT Latitude Longitude Course Direction KTS MPH feet Rate Location/Type
11:51 39.5111 -107.7292 57° Northeast 15 17 5,500  Level Denver Center
11:52 39.5050 -107.7278 170° South 18 21 5,500  Level Denver Center
11:53 39.5267 -107.7367 342° North 75 86 5,600 1,320 Climbing Denver Center
11:54 39.5200 -107.8067 263° West 180 207 8,300 2,880 Climbing Denver Center
11:55 39.4786 -107.7939 167° South 207 238 11,600 2,760 Climbing Denver Center
11:56 39.5044 -107.6972 71° East 278 320 14,100 2,100 Climbing Denver Center
11:57 39.4694 -106.6779 57° Northeast  Level FlightAware Approximate
11:57 39.5756 -107.6189 40° Northeast 348 400 16,000  Level Denver Center
11:58 39.6656 -107.5211 40° Northeast 372 428 19,500 2,760 Climbing Denver Center
11:59 39.7356 -107.4125 50° Northeast 417 480 21,800 2,220 Climbing Denver Center
12:00 39.7697 -107.2786 72° East 416 479 24,100 2,280 Climbing Denver Center
12:01 39.8014 -107.1003 77° East 426 490 26,600 2,040 Climbing Denver Center
12:02 39.8289 -106.9433 77° East 440 506 28,400 1,800 Climbing Denver Center
12:03 39.8581 -106.7772 77° East 463 533 30,400 1,920 Climbing Denver Center
12:04 39.8889 -106.6067 77° East 478 550 32,400 1,680 Climbing Denver Center
12:05 39.9219 -106.4092 78° East 488 562 33,900 1,500 Climbing Denver Center
12:06 39.9511 -106.2311 78° East 497 572 35,500 1,740 Climbing Denver Center
12:07 39.9828 -106.0517 77° East 501 577 37,500 1,500 Climbing Denver Center
12:08 40.0125 -105.8733 78° East 498 573 38,700 720 Climbing Denver Center
12:09 40.0433 -105.6881 78° East 519 597 39,000 120 Climbing Denver Center
12:10 40.0733 -105.5058 78° East 509 586 39,000  Level Denver Center
12:11 40.1022 -105.3242 78° East 506 582 39,000  Level Denver Center
12:12 40.1314 -105.1356 79° East 521 600 39,000  Level Denver Center
12:13 40.1611 -104.9514 78° East 511 588 39,000  Level Denver Center
12:15 40.1956 -104.7342 78° East 516 594 39,000  Level Denver Center
12:16 40.2242 -104.5475 79° East 515 593 39,000  Level Denver Center
12:17 40.2519 -104.3639 79° East 511 588 39,000  Level Denver Center
12:18 40.2800 -104.1756 79° East 516 594 39,000  Level Denver Center
12:19 40.3075 -103.9908 79° East 511 588 39,000  Level Denver Center
12:20 40.3350 -103.8047 79° East 513 590 39,000  Level Denver Center
12:21 40.3617 -103.6275 79° East 491 565 39,000  Level Denver Center
12:22 40.3892 -103.4422 79° East 508 585 39,000  Level Denver Center
12:23 40.4236 -103.1953 80° East 513 590 39,000  Level Denver Center
12:24 40.4556 -102.9772 79° East 517 595 39,000  Level Denver Center
12:25 40.4819 -102.7897 79° East 518 596 39,000  Level Denver Center
12:26 40.5267 -102.5911 73° East 517 595 39,000  Level Denver Center
12:27 40.5722 -102.4217 70° East 515 593 39,000  Level Denver Center
12:28 40.6264 -102.2214 70° East 520 598 39,000  Level Denver Center
12:29 40.6672 -102.0467 73° East 522 601 39,000  Level Denver Center
12:30 40.6942 -101.8353 80° East 524 603 39,000  Level Denver Center
12:31 40.7211 -101.6544 79° East 525 604 39,000  Level Denver Center
12:33 40.7486 -101.4431 80° East 525 604 39,000  Level Denver Center
12:34 40.7739 -101.2622 79° East 523 602 39,000  Level Denver Center
12:35 40.8019 -101.0503 80° East 525 604 39,000  Level Denver Center
12:36 40.8250 -100.8758 80° East 527 606 39,000  Level Denver Center
12:37 40.8525 -100.6614 80° East 520 598 39,000  Level Denver Center
12:38 40.8747 -100.4931 80° East 522 601 39,000  Level Denver Center
12:39 40.9003 -100.2831 81° East 520 598 39,000  Level Denver Center
12:40 40.9225 -100.1028 81° East 519 597 39,000  Level Denver Center
12:41 40.9486 -99.8928 81° East 520 598 39,000  Level Denver Center
12:42 40.9697 -99.7167 81° East 525 604 39,000  Level Denver Center
12:43 40.9969 -99.4858 81° East 528 608 39,000  Level Denver Center
12:44 41.0192 -99.2936 81° East 528 608 39,000  Level Denver Center
12:45 41.0417 -99.0978 81° East 526 605 39,000  Level Denver Center
12:46 41.0617 -98.9178 82° East 521 600 39,000  Level Denver Center
12:47 41.0797 -98.7472 82° East 521 600 39,000  Level Minneapolis Center
12:48 41.1017 -98.5556 81° East 524 603 39,000  Level Minneapolis Center
12:49 41.1219 -98.3600 82° East 521 600 39,000  Level Minneapolis Center
12:50 41.1431 -98.1686 82° East 524 603 39,000  Level Minneapolis Center
12:51 41.1622 -97.9756 82° East 527 606 39,000  Level Minneapolis Center
12:52 41.1861 -97.7431 82° East 530 610 39,000  Level Minneapolis Center
12:53 41.2058 -97.5497 82° East 529 609 39,000  Level Minneapolis Center
12:54 41.2242 -97.3636 82° East 527 606 39,000  Level Minneapolis Center
12:55 41.2425 -97.1711 83° East 526 605 39,000  Level Minneapolis Center
12:56 41.2611 -96.9772 83° East 529 609 39,000  Level Minneapolis Center
12:57 41.2800 -96.7803 83° East 536 617 39,000  Level Minneapolis Center
12:58 41.2986 -96.5811 83° East 544 626 39,000  Level Minneapolis Center
12:59 41.3172 -96.3728 83° East 548 631 39,000  Level Minneapolis Center
13:00 41.3372 -96.1300 84° East 549 632 39,000  Level Minneapolis Center
13:01 41.3558 -95.9264 83° East 552 635 39,000  Level Minneapolis Center
13:02 41.3722 -95.7206 84° East 557 641 39,000  Level Minneapolis Center
13:03 41.3906 -95.5047 83° East 555 639 39,000  Level Minneapolis Center
13:04 41.4064 -95.3006 84° East 554 638 39,000 60 Level Minneapolis Center
13:05 41.4233 -95.0975 84° East 553 636 39,200 540 Climbing Minneapolis Center
13:06 41.4389 -94.9025 84° East 533 613 40,200 780 Climbing Minneapolis Center
13:08 41.4525 -94.7192 84° East 503 579 41,000 300 Climbing Minneapolis Center
13:09 41.4708 -94.4919 84° East 510 587 41,000  Level Minneapolis Center
13:10 41.4875 -94.2636 84° East 515 593 41,000  Level Minneapolis Center
13:11 41.4969 -94.0733 86° East 518 596 41,000  Level Minneapolis Center
13:12 41.5100 -93.8833 85° East 518 596 41,000  Level Minneapolis Center
13:13 41.5233 -93.6922 85° East 518 596 41,000  Level Minneapolis Center
13:14 41.5339 -93.5372 85° East 521 600 41,000  Level Minneapolis Center
13:15 41.5483 -93.3067 85° East 523 602 41,000  Level Minneapolis Center
13:16 41.5600 -93.1142 85° East 522 601 41,000  Level Minneapolis Center
13:17 41.5744 -92.8839 85° East 522 601 41,000  Level Minneapolis Center
13:18 41.5858 -92.6944 85° East 519 597 41,000  Level Minneapolis Center
13:19 41.5958 -92.5050 86° East 515 593 41,000  Level Minneapolis Center
13:20 41.6053 -92.3150 86° East 514 592 41,000  Level Minneapolis Center
13:21 41.6158 -92.1267 86° East 513 590 41,000  Level Minneapolis Center
13:22 41.6250 -91.9389 86° East 511 588 41,000  Level Minneapolis Center
13:23 41.6339 -91.7483 86° East 513 590 41,000  Level Minneapolis Center
13:24 41.6472 -91.4775 86° East 509 586 41,000  Level Chicago Center
13:25 41.6556 -91.2914 87° East 508 585 41,000  Level Chicago Center
13:26 41.6639 -91.1039 87° East 511 588 41,000  Level Chicago Center
13:27 41.6717 -90.9158 87° East 513 590 41,000  Level Chicago Center
13:28 41.6789 -90.7278 87° East 513 590 41,000  Level Chicago Center
13:29 41.6872 -90.5050 87° East 512 589 41,000  Level Chicago Center
13:31 41.6947 -90.3125 87° East 515 593 41,000  Level Chicago Center
13:32 41.7019 -90.1242 87° East 509 586 41,000  Level Chicago Center
13:33 41.7083 -89.9339 87° East 509 586 41,000  Level Chicago Center
13:34 41.7139 -89.7456 88° East 505 581 41,000  Level Chicago Center
13:35 41.7208 -89.5344 87° East 512 589 41,000  Level Chicago Center
13:36 41.7261 -89.3464 88° East 508 585 41,000  Level Chicago Center
13:37 41.7311 -89.1558 88° East 512 589 41,000  Level Chicago Center
13:38 41.7350 -88.9658 88° East 514 592 41,000  Level Chicago Center
13:39 41.7397 -88.7733 88° East 518 596 41,000  Level Chicago Center
13:40 41.7439 -88.5517 88° East 525 604 41,000  Level Chicago Center
13:41 41.7486 -88.3456 88° East 520 598 41,000  Level Chicago Center
13:42 41.7519 -88.1483 89° East 523 602 41,000  Level Chicago Center
13:43 41.7544 -87.9525 89° East 522 601 41,000  Level Chicago Center
13:44 41.7578 -87.7556 89° East 527 606 41,000  Level Chicago Center
13:45 41.7594 -87.5614 89° East 522 601 41,000  Level Chicago Center
13:46 41.7617 -87.3661 89° East 525 604 41,000  Level Chicago Center
13:47 41.7636 -87.1725 89° East 523 602 41,000  Level Chicago Center
13:48 41.7661 -86.9386 89° East 524 603 41,000  Level Chicago Center
13:49 41.7653 -86.7431 90° East 525 604 41,000  Level Chicago Center
13:50 41.7669 -86.5650 89° East 526 605 41,000  Level Chicago Center
13:51 41.7678 -86.3686 90° East 525 604 41,000  Level Chicago Center
13:52 41.7864 -86.1339 84° East 529 609 41,000  Level Chicago Center
13:53 41.8069 -85.9381 82° East 531 611 41,000  Level Chicago Center
13:54 41.8272 -85.7417 82° East 529 609 41,000  Level Chicago Center
13:55 41.8478 -85.5450 82° East 528 608 41,000  Level Chicago Center
13:56 41.8667 -85.3483 83° East 525 604 41,000  Level Chicago Center
13:57 41.8828 -85.2192 80° East 526 605 41,000  Level Cleveland Center
13:58 41.9011 -85.0250 83° East 526 605 41,000  Level Cleveland Center
13:59 41.9208 -84.8311 82° East 526 605 41,000  Level Cleveland Center
14:00 41.9403 -84.6397 82° East 516 594 41,000  Level Cleveland Center
14:01 41.9597 -84.4425 82° East 521 600 41,000  Level Cleveland Center
14:02 41.9731 -84.2869 83° East 521 600 41,000  Level Cleveland Center
14:03 41.9942 -84.0814 82° East 516 594 41,000  Level Cleveland Center
14:04 42.0125 -83.8839 83° East 522 601 41,000  Level Cleveland Center
14:05 42.0331 -83.6725 82° East 522 601 41,000  Level Cleveland Center
14:06 42.0528 -83.4747 82° East 522 601 41,000  Level Cleveland Center
14:07 42.0742 -83.2800 82° East 522 601 41,000  Level Cleveland Center
14:08 42.0911 -83.0792 83° East 531 611 41,000  Level Cleveland Center
14:09 42.1100 -82.8839 83° East 536 617 41,000  Level Cleveland Center
14:10 42.1303 -82.6942 82° East 530 610 41,000  Level Cleveland Center
14:11 42.1397 -82.5042 86° East 519 597 41,000 360 Level Cleveland Center
14:12 42.1617 -82.3142 81° East 514 592 41,800 780 Climbing Cleveland Center
14:13 42.1742 -82.1661 83° East 508 585 42,600 840 Climbing Cleveland Center
14:14 42.1914 -81.9619 83° East 498 573 43,500 1,020 Climbing Cleveland Center
14:15 42.2081 -81.7744 83° East 498 573 44,700 720 Climbing Cleveland Center
14:16 42.2225 -81.5700 84° East 498 573 45,000 120 Climbing Cleveland Center
14:17 42.2386 -81.3797 83° East 505 581 45,000  Level Cleveland Center
14:18 42.2544 -81.1892 84° East 505 581 45,000  Level Cleveland Center
14:19 42.2678 -80.9928 85° East 511 588 45,000  Level Cleveland Center
14:20 42.2808 -80.7964 85° East 524 603 45,000  Level Cleveland Center
14:21 42.2956 -80.6028 84° East 523 602 45,000  Level Cleveland Center
14:22 42.3100 -80.4147 84° East 516 594 45,000  Level Cleveland Center
14:23 42.3200 -80.2406 86° East 516 594 45,000  Level Cleveland Center
14:24 42.3339 -80.0467 84° East 523 602 45,000  Level Cleveland Center
14:25 42.3475 -79.8556 84° East 517 595 45,000  Level Cleveland Center
14:26 42.3586 -79.6644 85° East 517 595 45,000  Level Cleveland Center
14:27 42.3714 -79.4703 85° East 517 595 45,000  Level Cleveland Center
14:28 42.3800 -79.2817 86° East 517 595 45,000  Level Cleveland Center
14:29 42.3922 -79.0875 85° East 517 595 45,000  Level Cleveland Center
14:30 42.4042 -78.8961 85° East 517 595 45,000  Level Cleveland Center
14:31 42.4136 -78.7044 86° East 512 589 45,000  Level Cleveland Center
14:32 42.4250 -78.5158 85° East 507 583 45,000  Level Cleveland Center
14:33 42.4339 -78.3269 86° East 502 578 45,000  Level Cleveland Center
14:34 42.4428 -78.1381 86° East 502 578 45,000  Level Cleveland Center
14:35 42.4508 -77.9436 87° East 502 578 45,000  Level Cleveland Center
14:36 42.4592 -77.7603 86° East 497 572 45,000  Level Cleveland Center
14:38 42.4778 -77.3478 86° East 494 568 45,000  Level Boston Center
14:39 42.4858 -77.1569 87° East 500 575 45,000  Level Boston Center
14:40 42.4936 -76.9658 87° East 500 575 45,000  Level Boston Center
14:41 42.5011 -76.7747 87° East 500 575 45,000  Level Boston Center
14:42 42.5061 -76.5836 88° East 500 575 45,000 -120 Level Boston Center
14:43 42.5150 -76.3953 86° East 500 575 44,800 -600 Descending Boston Center
14:44 42.5125 -76.2233 91° East 500 575 43,900 -960 Descending Boston Center
14:45 42.4981 -76.0253 96° East 508 585 42,900 -1,020 Descending Boston Center
14:46 42.4853 -75.8328 95° East 513 590 41,900 -1,260 Descending Boston Center
14:47 42.4719 -75.6381 95° East 519 597 40,400 -1,560 Descending Boston Center
14:48 42.4586 -75.4458 95° East 519 597 38,800 -1,740 Descending Boston Center
14:49 42.4447 -75.2539 96° East 519 597 37,000 -1,800 Descending Boston Center
14:50 42.4306 -75.0647 96° East 519 597 35,200 -1,800 Descending Boston Center
14:51 42.4142 -74.8669 96° East 519 597 33,400 -2,040 Descending Boston Center
14:52 42.3978 -74.6472 96° East 526 605 31,200 -1,980 Descending Boston Center
14:53 42.3806 -74.4553 97° East 521 600 29,500 -1,140 Descending Boston Center
14:54 42.3708 -74.2836 94° East 516 594 29,000 -660 Descending Boston Center
14:55 42.3531 -74.0919 97° East 516 594 28,300 -900 Descending Boston Center
14:56 42.3389 -73.9033 96° East 516 594 27,200 -1,140 Descending Boston Center
14:57 42.3222 -73.7261 97° East 496 571 26,000 -1,020 Descending Boston Center
14:58 42.3075 -73.5406 96° East 496 571 25,200 -1,020 Descending Boston Center
14:59 42.2944 -73.3692 96° East 476 548 24,100 -1,500 Descending Boston Center
15:00 42.2622 -73.2058 105° East 455 524 22,300 -2,340 Descending Boston Center
15:01 42.1944 -73.0453 120° Southeast 442 509 19,400 -1,680 Descending Boston Center
15:02 42.1283 -72.9300 128° Southeast 437 503 19,000 -240 Descending Boston Center
15:03 42.0433 -72.7922 130° Southeast 437 503 19,000  Level Boston Center
15:04 41.9647 -72.6689 131° Southeast 437 503 19,000 -780 Level Boston Center
15:05 41.9064 -72.5739 130° Southeast 436 502 17,700 -1,800 Descending Boston Center
15:05 41.8939 -72.5572 135° Southeast 437 503 17,200 -2,160 Descending Boston Center
15:06 41.8147 -72.4289 130° Southeast 427 491 15,000 -2,040 Descending Boston Center
15:07 41.7500 -72.3289 131° Southeast 405 466 13,300 -1,860 Descending Boston Center
15:08 41.6769 -72.2067 129° Southeast 394 453 11,300 -1,200 Descending Boston Center
15:09 41.6206 -72.1125 129° Southeast 383 441 11,000 -360 Descending Boston Center
15:10 41.5244 -72.0464 153° Southeast 331 381 10,700 -960 Descending Boston Center
15:11 41.4494 -72.0800 199° South 283 326 9,100 -1,800 Descending Boston Center
15:12 41.3892 -72.1275 211° Southwest 272 313 7,300 -1,200 Descending Boston Center
15:13 41.3000 -72.2500 226° Southwest 263 303 6,000 -900 Descending New York TRACON
15:14 41.2500 -72.3167 225° Southwest 258 297 4,900 -1,440 Descending New York TRACON
15:16 41.2000 -72.3833 225° Southwest 258 297 3,000 -960 Descending New York TRACON
15:16 41.1500 -72.4333 217° Southwest 269 310 3,000  Level New York TRACON
15:17 41.0833 -72.4667 201° Southwest 232 267 3,000  Level New York TRACON
15:18 41.0167 -72.5000 201° Southwest 230 265 3,000 -120 Level New York TRACON
15:19 40.9667 -72.5167 194° South 211 243 2,800 -600 Descending New York TRACON
15:20 40.9167 -72.5500 207° Southwest 185 213 1,800 -900 Descending New York TRACON
15:21 40.8833 -72.5833 217° Southwest 148 170 1,100 -720 Descending New York TRACON
15:23 40.8333 -72.6167 123° Southeast  Level FlightAware Approximate
15:30 40.8437 -72.6318 123° Southeast  Level Estimated